sensor_id;sensor_type;location;lat;lon;timestamp;P1;durP1;ratioP1;P2;durP2;ratioP2
76978;SDS011;65911;47.502;19.148;2023-08-20T00:02:08;11.77;;;6.80;;
76978;SDS011;65911;47.502;19.148;2023-08-20T00:05:10;9.30;;;6.35;;
76978;SDS011;65911;47.502;19.148;2023-08-20T00:08:13;8.48;;;6.40;;
76978;SDS011;65911;47.502;19.148;2023-08-20T00:11:16;7.97;;;6.70;;
76978;SDS011;65911;47.502;19.148;2023-08-20T00:14:18;7.00;;;6.30;;
76978;SDS011;65911;47.502;19.148;2023-08-20T00:17:20;7.80;;;6.32;;
76978;SDS011;65911;47.502;19.148;2023-08-20T00:20:24;9.82;;;6.35;;
76978;SDS011;65911;47.502;19.148;2023-08-20T00:23:27;8.37;;;6.17;;
76978;SDS011;65911;47.502;19.148;2023-08-20T00:26:29;8.45;;;6.30;;
76978;SDS011;65911;47.502;19.148;2023-08-20T00:29:32;8.95;;;6.07;;
76978;SDS011;65911;47.502;19.148;2023-08-20T00:32:34;8.97;;;6.30;;
76978;SDS011;65911;47.502;19.148;2023-08-20T00:35:37;8.00;;;5.80;;
76978;SDS011;65911;47.502;19.148;2023-08-20T00:38:39;8.90;;;6.53;;
76978;SDS011;65911;47.502;19.148;2023-08-20T00:41:41;6.90;;;6.20;;
76978;SDS011;65911;47.502;19.148;2023-08-20T00:44:44;8.30;;;6.32;;
76978;SDS011;65911;47.502;19.148;2023-08-20T00:47:46;7.95;;;5.65;;
76978;SDS011;65911;47.502;19.148;2023-08-20T00:50:49;6.35;;;5.70;;
76978;SDS011;65911;47.502;19.148;2023-08-20T00:53:52;8.30;;;5.93;;
76978;SDS011;65911;47.502;19.148;2023-08-20T00:56:54;7.85;;;6.05;;
76978;SDS011;65911;47.502;19.148;2023-08-20T00:59:57;7.38;;;5.75;;
76978;SDS011;65911;47.502;19.148;2023-08-20T01:02:59;6.83;;;5.77;;
76978;SDS011;65911;47.502;19.148;2023-08-20T01:06:09;7.28;;;5.97;;
76978;SDS011;65911;47.502;19.148;2023-08-20T01:12:20;7.10;;;6.40;;
76978;SDS011;65911;47.502;19.148;2023-08-20T01:15:25;6.88;;;5.32;;
76978;SDS011;65911;47.502;19.148;2023-08-20T01:18:27;8.23;;;6.00;;
76978;SDS011;65911;47.502;19.148;2023-08-20T01:21:35;6.53;;;5.82;;
76978;SDS011;65911;47.502;19.148;2023-08-20T01:24:44;7.00;;;5.97;;
76978;SDS011;65911;47.502;19.148;2023-08-20T01:27:52;6.65;;;5.60;;
76978;SDS011;65911;47.502;19.148;2023-08-20T01:31:03;9.73;;;5.60;;
76978;SDS011;65911;47.502;19.148;2023-08-20T01:34:06;7.87;;;5.80;;
76978;SDS011;65911;47.502;19.148;2023-08-20T01:37:08;7.43;;;5.95;;
76978;SDS011;65911;47.502;19.148;2023-08-20T01:40:10;7.43;;;5.90;;
76978;SDS011;65911;47.502;19.148;2023-08-20T01:43:13;6.93;;;5.78;;
76978;SDS011;65911;47.502;19.148;2023-08-20T01:46:15;8.18;;;6.25;;
76978;SDS011;65911;47.502;19.148;2023-08-20T01:49:17;8.48;;;6.05;;
76978;SDS011;65911;47.502;19.148;2023-08-20T01:52:19;6.90;;;5.50;;
76978;SDS011;65911;47.502;19.148;2023-08-20T01:55:22;7.70;;;6.13;;
76978;SDS011;65911;47.502;19.148;2023-08-20T01:58:24;9.38;;;5.35;;
76978;SDS011;65911;47.502;19.148;2023-08-20T02:01:27;10.60;;;5.63;;
76978;SDS011;65911;47.502;19.148;2023-08-20T02:04:29;7.50;;;6.10;;
76978;SDS011;65911;47.502;19.148;2023-08-20T02:07:31;9.40;;;6.05;;
76978;SDS011;65911;47.502;19.148;2023-08-20T02:10:34;6.97;;;5.97;;
76978;SDS011;65911;47.502;19.148;2023-08-20T02:13:36;6.95;;;6.10;;
76978;SDS011;65911;47.502;19.148;2023-08-20T02:16:39;8.40;;;5.97;;
76978;SDS011;65911;47.502;19.148;2023-08-20T02:19:42;7.18;;;6.00;;
76978;SDS011;65911;47.502;19.148;2023-08-20T02:22:44;9.27;;;6.22;;
76978;SDS011;65911;47.502;19.148;2023-08-20T02:25:46;6.70;;;5.80;;
76978;SDS011;65911;47.502;19.148;2023-08-20T02:28:49;8.30;;;5.63;;
76978;SDS011;65911;47.502;19.148;2023-08-20T02:31:52;7.95;;;5.80;;
76978;SDS011;65911;47.502;19.148;2023-08-20T02:34:54;8.80;;;5.90;;
76978;SDS011;65911;47.502;19.148;2023-08-20T02:38:00;8.52;;;5.38;;
76978;SDS011;65911;47.502;19.148;2023-08-20T02:41:02;7.35;;;5.10;;
76978;SDS011;65911;47.502;19.148;2023-08-20T02:44:05;8.13;;;5.72;;
76978;SDS011;65911;47.502;19.148;2023-08-20T02:47:07;5.95;;;5.40;;
76978;SDS011;65911;47.502;19.148;2023-08-20T02:50:09;6.35;;;5.43;;
76978;SDS011;65911;47.502;19.148;2023-08-20T02:53:12;7.35;;;5.47;;
76978;SDS011;65911;47.502;19.148;2023-08-20T02:56:14;8.57;;;5.60;;
76978;SDS011;65911;47.502;19.148;2023-08-20T02:59:16;7.00;;;5.88;;
76978;SDS011;65911;47.502;19.148;2023-08-20T03:02:19;7.75;;;5.20;;
76978;SDS011;65911;47.502;19.148;2023-08-20T03:05:21;8.27;;;5.60;;
76978;SDS011;65911;47.502;19.148;2023-08-20T03:08:23;6.95;;;5.25;;
76978;SDS011;65911;47.502;19.148;2023-08-20T03:11:26;6.50;;;5.90;;
76978;SDS011;65911;47.502;19.148;2023-08-20T03:14:28;6.85;;;5.70;;
76978;SDS011;65911;47.502;19.148;2023-08-20T03:17:30;7.43;;;6.13;;
76978;SDS011;65911;47.502;19.148;2023-08-20T03:20:32;7.03;;;6.00;;
76978;SDS011;65911;47.502;19.148;2023-08-20T03:23:35;8.52;;;6.18;;
76978;SDS011;65911;47.502;19.148;2023-08-20T03:26:38;7.30;;;5.70;;
76978;SDS011;65911;47.502;19.148;2023-08-20T03:29:40;8.23;;;5.60;;
76978;SDS011;65911;47.502;19.148;2023-08-20T03:32:43;8.50;;;5.40;;
76978;SDS011;65911;47.502;19.148;2023-08-20T03:35:45;8.67;;;5.70;;
76978;SDS011;65911;47.502;19.148;2023-08-20T03:38:48;7.05;;;5.45;;
76978;SDS011;65911;47.502;19.148;2023-08-20T03:41:50;7.25;;;5.63;;
76978;SDS011;65911;47.502;19.148;2023-08-20T03:44:53;7.72;;;5.70;;
76978;SDS011;65911;47.502;19.148;2023-08-20T03:47:56;8.85;;;6.25;;
76978;SDS011;65911;47.502;19.148;2023-08-20T03:50:58;9.77;;;6.00;;
76978;SDS011;65911;47.502;19.148;2023-08-20T03:54:00;8.25;;;5.70;;
76978;SDS011;65911;47.502;19.148;2023-08-20T03:57:02;7.60;;;5.87;;
76978;SDS011;65911;47.502;19.148;2023-08-20T04:00:05;7.57;;;5.47;;
76978;SDS011;65911;47.502;19.148;2023-08-20T04:03:15;9.40;;;6.10;;
76978;SDS011;65911;47.502;19.148;2023-08-20T04:06:21;7.50;;;5.90;;
76978;SDS011;65911;47.502;19.148;2023-08-20T04:09:23;9.73;;;5.72;;
76978;SDS011;65911;47.502;19.148;2023-08-20T04:12:25;8.52;;;5.75;;
76978;SDS011;65911;47.502;19.148;2023-08-20T04:15:30;12.18;;;5.93;;
76978;SDS011;65911;47.502;19.148;2023-08-20T04:18:33;7.20;;;6.25;;
76978;SDS011;65911;47.502;19.148;2023-08-20T04:21:35;7.88;;;5.60;;
76978;SDS011;65911;47.502;19.148;2023-08-20T04:24:38;6.82;;;6.13;;
76978;SDS011;65911;47.502;19.148;2023-08-20T04:27:40;7.57;;;5.73;;
76978;SDS011;65911;47.502;19.148;2023-08-20T04:30:43;9.45;;;6.00;;
76978;SDS011;65911;47.502;19.148;2023-08-20T04:33:49;6.63;;;5.70;;
76978;SDS011;65911;47.502;19.148;2023-08-20T04:36:55;8.63;;;5.53;;
76978;SDS011;65911;47.502;19.148;2023-08-20T04:39:57;10.57;;;6.32;;
76978;SDS011;65911;47.502;19.148;2023-08-20T04:43:00;8.27;;;5.80;;
76978;SDS011;65911;47.502;19.148;2023-08-20T04:46:03;7.40;;;6.35;;
76978;SDS011;65911;47.502;19.148;2023-08-20T04:49:05;7.55;;;6.07;;
76978;SDS011;65911;47.502;19.148;2023-08-20T04:52:08;12.70;;;6.78;;
76978;SDS011;65911;47.502;19.148;2023-08-20T04:55:10;6.75;;;5.80;;
76978;SDS011;65911;47.502;19.148;2023-08-20T04:58:13;7.97;;;5.60;;
76978;SDS011;65911;47.502;19.148;2023-08-20T05:01:15;7.20;;;5.70;;
76978;SDS011;65911;47.502;19.148;2023-08-20T05:04:18;7.72;;;5.95;;
76978;SDS011;65911;47.502;19.148;2023-08-20T05:07:20;7.80;;;6.00;;
76978;SDS011;65911;47.502;19.148;2023-08-20T05:10:23;6.10;;;5.50;;
76978;SDS011;65911;47.502;19.148;2023-08-20T05:13:26;9.00;;;5.82;;
76978;SDS011;65911;47.502;19.148;2023-08-20T05:16:28;6.78;;;6.07;;
76978;SDS011;65911;47.502;19.148;2023-08-20T05:19:31;5.85;;;5.25;;
76978;SDS011;65911;47.502;19.148;2023-08-20T05:22:33;7.38;;;5.68;;
76978;SDS011;65911;47.502;19.148;2023-08-20T05:25:37;8.82;;;5.78;;
76978;SDS011;65911;47.502;19.148;2023-08-20T05:28:39;5.90;;;5.33;;
76978;SDS011;65911;47.502;19.148;2023-08-20T05:31:41;6.20;;;5.60;;
76978;SDS011;65911;47.502;19.148;2023-08-20T05:34:44;8.05;;;6.07;;
76978;SDS011;65911;47.502;19.148;2023-08-20T05:37:47;8.70;;;5.80;;
76978;SDS011;65911;47.502;19.148;2023-08-20T05:40:49;7.53;;;5.70;;
76978;SDS011;65911;47.502;19.148;2023-08-20T05:43:52;6.78;;;5.72;;
76978;SDS011;65911;47.502;19.148;2023-08-20T05:46:54;6.65;;;5.88;;
76978;SDS011;65911;47.502;19.148;2023-08-20T05:49:59;6.80;;;5.75;;
76978;SDS011;65911;47.502;19.148;2023-08-20T05:53:02;6.00;;;5.38;;
76978;SDS011;65911;47.502;19.148;2023-08-20T05:56:04;6.90;;;5.45;;
76978;SDS011;65911;47.502;19.148;2023-08-20T05:59:07;6.77;;;5.37;;
76978;SDS011;65911;47.502;19.148;2023-08-20T06:02:09;6.88;;;6.15;;
76978;SDS011;65911;47.502;19.148;2023-08-20T06:05:11;7.68;;;5.32;;
76978;SDS011;65911;47.502;19.148;2023-08-20T06:08:13;8.77;;;5.90;;
76978;SDS011;65911;47.502;19.148;2023-08-20T06:11:16;5.80;;;5.20;;
76978;SDS011;65911;47.502;19.148;2023-08-20T06:14:18;6.22;;;4.85;;
76978;SDS011;65911;47.502;19.148;2023-08-20T06:17:20;6.45;;;5.40;;
76978;SDS011;65911;47.502;19.148;2023-08-20T06:20:22;6.38;;;5.50;;
76978;SDS011;65911;47.502;19.148;2023-08-20T06:23:24;6.45;;;5.13;;
76978;SDS011;65911;47.502;19.148;2023-08-20T06:26:44;8.20;;;5.70;;
76978;SDS011;65911;47.502;19.148;2023-08-20T06:29:49;6.03;;;5.23;;
76978;SDS011;65911;47.502;19.148;2023-08-20T06:32:51;5.75;;;5.10;;
76978;SDS011;65911;47.502;19.148;2023-08-20T06:35:54;7.72;;;5.00;;
76978;SDS011;65911;47.502;19.148;2023-08-20T06:38:56;8.13;;;5.47;;
76978;SDS011;65911;47.502;19.148;2023-08-20T06:41:58;6.03;;;5.32;;
76978;SDS011;65911;47.502;19.148;2023-08-20T06:45:01;6.80;;;5.32;;
76978;SDS011;65911;47.502;19.148;2023-08-20T06:48:03;5.68;;;4.97;;
76978;SDS011;65911;47.502;19.148;2023-08-20T06:51:12;5.93;;;5.32;;
76978;SDS011;65911;47.502;19.148;2023-08-20T06:54:17;5.97;;;5.30;;
76978;SDS011;65911;47.502;19.148;2023-08-20T06:57:20;7.18;;;5.40;;
76978;SDS011;65911;47.502;19.148;2023-08-20T07:00:22;6.83;;;4.87;;
76978;SDS011;65911;47.502;19.148;2023-08-20T07:03:24;7.03;;;5.78;;
76978;SDS011;65911;47.502;19.148;2023-08-20T07:06:27;6.55;;;5.45;;
76978;SDS011;65911;47.502;19.148;2023-08-20T07:09:29;6.30;;;5.40;;
76978;SDS011;65911;47.502;19.148;2023-08-20T07:12:31;5.95;;;4.90;;
76978;SDS011;65911;47.502;19.148;2023-08-20T07:15:34;6.43;;;4.88;;
76978;SDS011;65911;47.502;19.148;2023-08-20T07:18:36;6.75;;;5.35;;
76978;SDS011;65911;47.502;19.148;2023-08-20T07:21:38;6.97;;;4.82;;
76978;SDS011;65911;47.502;19.148;2023-08-20T07:24:40;6.97;;;5.25;;
76978;SDS011;65911;47.502;19.148;2023-08-20T07:27:43;7.07;;;5.00;;
76978;SDS011;65911;47.502;19.148;2023-08-20T07:30:46;7.40;;;5.50;;
76978;SDS011;65911;47.502;19.148;2023-08-20T07:33:49;5.70;;;4.97;;
76978;SDS011;65911;47.502;19.148;2023-08-20T07:36:52;6.63;;;5.30;;
76978;SDS011;65911;47.502;19.148;2023-08-20T07:39:54;5.97;;;4.70;;
76978;SDS011;65911;47.502;19.148;2023-08-20T07:42:56;7.15;;;5.25;;
76978;SDS011;65911;47.502;19.148;2023-08-20T07:45:59;5.65;;;5.00;;
76978;SDS011;65911;47.502;19.148;2023-08-20T07:49:01;5.40;;;4.85;;
76978;SDS011;65911;47.502;19.148;2023-08-20T07:52:03;6.40;;;4.93;;
76978;SDS011;65911;47.502;19.148;2023-08-20T07:55:05;5.88;;;5.28;;
76978;SDS011;65911;47.502;19.148;2023-08-20T07:58:08;5.70;;;5.05;;
76978;SDS011;65911;47.502;19.148;2023-08-20T08:01:10;5.77;;;5.13;;
76978;SDS011;65911;47.502;19.148;2023-08-20T08:04:12;8.90;;;5.10;;
76978;SDS011;65911;47.502;19.148;2023-08-20T08:07:15;5.45;;;4.57;;
76978;SDS011;65911;47.502;19.148;2023-08-20T08:10:17;6.07;;;5.07;;
76978;SDS011;65911;47.502;19.148;2023-08-20T08:13:20;6.30;;;5.22;;
76978;SDS011;65911;47.502;19.148;2023-08-20T08:16:23;5.40;;;4.90;;
76978;SDS011;65911;47.502;19.148;2023-08-20T08:19:25;6.22;;;4.95;;
76978;SDS011;65911;47.502;19.148;2023-08-20T08:22:27;6.45;;;5.57;;
76978;SDS011;65911;47.502;19.148;2023-08-20T08:25:30;6.50;;;5.22;;
76978;SDS011;65911;47.502;19.148;2023-08-20T08:28:32;5.85;;;5.13;;
76978;SDS011;65911;47.502;19.148;2023-08-20T08:31:34;7.20;;;5.10;;
76978;SDS011;65911;47.502;19.148;2023-08-20T08:34:37;7.70;;;5.20;;
76978;SDS011;65911;47.502;19.148;2023-08-20T08:37:39;6.10;;;4.85;;
76978;SDS011;65911;47.502;19.148;2023-08-20T08:40:41;8.60;;;5.33;;
76978;SDS011;65911;47.502;19.148;2023-08-20T08:43:44;5.68;;;4.88;;
76978;SDS011;65911;47.502;19.148;2023-08-20T08:46:48;7.72;;;5.43;;
76978;SDS011;65911;47.502;19.148;2023-08-20T08:49:52;6.78;;;5.07;;
76978;SDS011;65911;47.502;19.148;2023-08-20T08:52:56;7.00;;;5.45;;
76978;SDS011;65911;47.502;19.148;2023-08-20T08:55:59;6.78;;;5.63;;
76978;SDS011;65911;47.502;19.148;2023-08-20T08:59:02;5.95;;;5.00;;
76978;SDS011;65911;47.502;19.148;2023-08-20T09:02:07;5.47;;;4.73;;
76978;SDS011;65911;47.502;19.148;2023-08-20T09:05:12;8.05;;;5.15;;
76978;SDS011;65911;47.502;19.148;2023-08-20T09:08:34;8.18;;;4.82;;
76978;SDS011;65911;47.502;19.148;2023-08-20T09:11:36;5.90;;;4.90;;
76978;SDS011;65911;47.502;19.148;2023-08-20T09:14:38;5.20;;;4.70;;
76978;SDS011;65911;47.502;19.148;2023-08-20T09:17:41;5.60;;;5.10;;
76978;SDS011;65911;47.502;19.148;2023-08-20T09:20:43;5.95;;;5.32;;
76978;SDS011;65911;47.502;19.148;2023-08-20T09:23:46;5.95;;;4.70;;
76978;SDS011;65911;47.502;19.148;2023-08-20T09:26:48;6.22;;;5.07;;
76978;SDS011;65911;47.502;19.148;2023-08-20T09:29:52;6.50;;;4.63;;
76978;SDS011;65911;47.502;19.148;2023-08-20T09:33:06;6.17;;;5.30;;
76978;SDS011;65911;47.502;19.148;2023-08-20T09:36:10;6.07;;;5.28;;
76978;SDS011;65911;47.502;19.148;2023-08-20T09:39:12;7.53;;;5.50;;
76978;SDS011;65911;47.502;19.148;2023-08-20T09:42:15;6.53;;;4.80;;
76978;SDS011;65911;47.502;19.148;2023-08-20T09:45:18;6.55;;;5.22;;
76978;SDS011;65911;47.502;19.148;2023-08-20T09:48:21;8.13;;;5.05;;
76978;SDS011;65911;47.502;19.148;2023-08-20T09:51:27;9.88;;;5.05;;
76978;SDS011;65911;47.502;19.148;2023-08-20T09:57:46;5.22;;;4.72;;
76978;SDS011;65911;47.502;19.148;2023-08-20T10:00:49;5.28;;;4.78;;
76978;SDS011;65911;47.502;19.148;2023-08-20T10:03:53;6.20;;;4.47;;
76978;SDS011;65911;47.502;19.148;2023-08-20T10:06:55;4.85;;;4.35;;
76978;SDS011;65911;47.502;19.148;2023-08-20T10:10:03;7.30;;;4.65;;
76978;SDS011;65911;47.502;19.148;2023-08-20T10:13:07;7.80;;;5.03;;
76978;SDS011;65911;47.502;19.148;2023-08-20T10:16:23;5.37;;;4.30;;
76978;SDS011;65911;47.502;19.148;2023-08-20T10:19:26;4.85;;;4.40;;
76978;SDS011;65911;47.502;19.148;2023-08-20T10:22:32;5.22;;;4.70;;
76978;SDS011;65911;47.502;19.148;2023-08-20T10:25:41;5.50;;;5.00;;
76978;SDS011;65911;47.502;19.148;2023-08-20T10:28:48;5.10;;;4.60;;
76978;SDS011;65911;47.502;19.148;2023-08-20T10:31:50;5.25;;;4.75;;
76978;SDS011;65911;47.502;19.148;2023-08-20T10:34:55;5.25;;;4.22;;
76978;SDS011;65911;47.502;19.148;2023-08-20T10:38:02;6.20;;;4.80;;
76978;SDS011;65911;47.502;19.148;2023-08-20T10:41:08;7.63;;;5.05;;
76978;SDS011;65911;47.502;19.148;2023-08-20T10:44:11;6.15;;;4.32;;
76978;SDS011;65911;47.502;19.148;2023-08-20T10:47:16;4.55;;;4.15;;
76978;SDS011;65911;47.502;19.148;2023-08-20T10:50:19;5.43;;;4.72;;
76978;SDS011;65911;47.502;19.148;2023-08-20T10:53:22;6.07;;;5.13;;
76978;SDS011;65911;47.502;19.148;2023-08-20T10:56:25;5.57;;;4.60;;
76978;SDS011;65911;47.502;19.148;2023-08-20T10:59:39;5.40;;;4.90;;
76978;SDS011;65911;47.502;19.148;2023-08-20T11:02:42;5.05;;;4.35;;
76978;SDS011;65911;47.502;19.148;2023-08-20T11:05:44;5.30;;;4.80;;
76978;SDS011;65911;47.502;19.148;2023-08-20T11:08:50;4.93;;;4.50;;
76978;SDS011;65911;47.502;19.148;2023-08-20T11:11:52;5.80;;;4.65;;
76978;SDS011;65911;47.502;19.148;2023-08-20T11:14:59;6.25;;;4.32;;
76978;SDS011;65911;47.502;19.148;2023-08-20T11:18:02;7.50;;;4.80;;
76978;SDS011;65911;47.502;19.148;2023-08-20T11:21:05;5.70;;;4.95;;
76978;SDS011;65911;47.502;19.148;2023-08-20T11:24:09;5.85;;;4.80;;
76978;SDS011;65911;47.502;19.148;2023-08-20T11:27:12;5.80;;;4.13;;
76978;SDS011;65911;47.502;19.148;2023-08-20T11:30:15;5.90;;;4.40;;
76978;SDS011;65911;47.502;19.148;2023-08-20T11:33:18;5.18;;;4.68;;
76978;SDS011;65911;47.502;19.148;2023-08-20T11:36:20;5.00;;;4.28;;
76978;SDS011;65911;47.502;19.148;2023-08-20T11:39:23;5.22;;;4.50;;
76978;SDS011;65911;47.502;19.148;2023-08-20T11:42:26;6.43;;;5.00;;
76978;SDS011;65911;47.502;19.148;2023-08-20T11:45:28;6.75;;;4.78;;
76978;SDS011;65911;47.502;19.148;2023-08-20T11:48:31;5.82;;;4.93;;
76978;SDS011;65911;47.502;19.148;2023-08-20T11:51:40;6.13;;;4.68;;
76978;SDS011;65911;47.502;19.148;2023-08-20T11:54:43;5.53;;;4.40;;
76978;SDS011;65911;47.502;19.148;2023-08-20T11:57:49;5.13;;;4.60;;
76978;SDS011;65911;47.502;19.148;2023-08-20T12:00:52;5.15;;;4.40;;
76978;SDS011;65911;47.502;19.148;2023-08-20T12:03:58;7.22;;;4.80;;
76978;SDS011;65911;47.502;19.148;2023-08-20T12:10:20;5.35;;;4.85;;
76978;SDS011;65911;47.502;19.148;2023-08-20T12:13:23;5.70;;;4.65;;
76978;SDS011;65911;47.502;19.148;2023-08-20T12:16:25;6.07;;;4.93;;
76978;SDS011;65911;47.502;19.148;2023-08-20T12:19:28;6.03;;;4.40;;
76978;SDS011;65911;47.502;19.148;2023-08-20T12:22:30;5.50;;;4.57;;
76978;SDS011;65911;47.502;19.148;2023-08-20T12:25:34;5.55;;;4.55;;
76978;SDS011;65911;47.502;19.148;2023-08-20T12:28:37;6.27;;;4.83;;
76978;SDS011;65911;47.502;19.148;2023-08-20T12:31:39;5.63;;;4.90;;
76978;SDS011;65911;47.502;19.148;2023-08-20T12:34:42;6.03;;;4.90;;
76978;SDS011;65911;47.502;19.148;2023-08-20T12:37:45;5.50;;;5.00;;
76978;SDS011;65911;47.502;19.148;2023-08-20T12:40:48;9.15;;;5.07;;
76978;SDS011;65911;47.502;19.148;2023-08-20T12:43:50;6.90;;;5.03;;
76978;SDS011;65911;47.502;19.148;2023-08-20T12:46:52;6.65;;;4.82;;
76978;SDS011;65911;47.502;19.148;2023-08-20T12:49:54;7.30;;;4.80;;
76978;SDS011;65911;47.502;19.148;2023-08-20T12:52:57;5.70;;;5.10;;
76978;SDS011;65911;47.502;19.148;2023-08-20T12:55:59;5.15;;;4.70;;
76978;SDS011;65911;47.502;19.148;2023-08-20T12:59:01;5.00;;;4.50;;
76978;SDS011;65911;47.502;19.148;2023-08-20T13:02:04;5.85;;;4.60;;
76978;SDS011;65911;47.502;19.148;2023-08-20T13:05:07;5.03;;;4.40;;
76978;SDS011;65911;47.502;19.148;2023-08-20T13:08:11;6.93;;;4.40;;
76978;SDS011;65911;47.502;19.148;2023-08-20T13:11:16;7.93;;;4.57;;
76978;SDS011;65911;47.502;19.148;2023-08-20T13:14:19;7.22;;;4.50;;
76978;SDS011;65911;47.502;19.148;2023-08-20T13:17:21;5.80;;;4.70;;
76978;SDS011;65911;47.502;19.148;2023-08-20T13:20:24;5.72;;;4.75;;
76978;SDS011;65911;47.502;19.148;2023-08-20T13:23:27;5.00;;;4.50;;
76978;SDS011;65911;47.502;19.148;2023-08-20T13:26:29;5.82;;;4.80;;
76978;SDS011;65911;47.502;19.148;2023-08-20T13:29:32;7.43;;;4.75;;
76978;SDS011;65911;47.502;19.148;2023-08-20T13:32:34;5.63;;;4.70;;
76978;SDS011;65911;47.502;19.148;2023-08-20T13:35:40;5.22;;;4.72;;
76978;SDS011;65911;47.502;19.148;2023-08-20T13:38:43;6.15;;;4.90;;
76978;SDS011;65911;47.502;19.148;2023-08-20T13:41:46;6.43;;;4.80;;
76978;SDS011;65911;47.502;19.148;2023-08-20T13:44:51;5.65;;;4.68;;
76978;SDS011;65911;47.502;19.148;2023-08-20T13:47:53;5.70;;;5.10;;
76978;SDS011;65911;47.502;19.148;2023-08-20T13:50:55;5.20;;;4.70;;
76978;SDS011;65911;47.502;19.148;2023-08-20T13:53:58;5.32;;;4.72;;
76978;SDS011;65911;47.502;19.148;2023-08-20T13:57:00;6.57;;;4.95;;
76978;SDS011;65911;47.502;19.148;2023-08-20T14:00:03;5.43;;;4.85;;
76978;SDS011;65911;47.502;19.148;2023-08-20T14:03:11;5.83;;;4.80;;
76978;SDS011;65911;47.502;19.148;2023-08-20T14:06:13;6.15;;;4.90;;
76978;SDS011;65911;47.502;19.148;2023-08-20T14:09:15;5.88;;;5.30;;
76978;SDS011;65911;47.502;19.148;2023-08-20T14:12:20;7.28;;;4.75;;
76978;SDS011;65911;47.502;19.148;2023-08-20T14:15:23;5.47;;;4.93;;
76978;SDS011;65911;47.502;19.148;2023-08-20T14:18:25;5.88;;;4.93;;
76978;SDS011;65911;47.502;19.148;2023-08-20T14:21:27;6.25;;;4.95;;
76978;SDS011;65911;47.502;19.148;2023-08-20T14:24:30;6.63;;;4.63;;
76978;SDS011;65911;47.502;19.148;2023-08-20T14:27:32;7.75;;;4.75;;
76978;SDS011;65911;47.502;19.148;2023-08-20T14:30:37;5.75;;;4.80;;
76978;SDS011;65911;47.502;19.148;2023-08-20T14:33:40;4.82;;;4.43;;
76978;SDS011;65911;47.502;19.148;2023-08-20T14:36:42;5.30;;;4.40;;
76978;SDS011;65911;47.502;19.148;2023-08-20T14:39:45;6.63;;;4.38;;
76978;SDS011;65911;47.502;19.148;2023-08-20T14:42:47;4.95;;;4.30;;
76978;SDS011;65911;47.502;19.148;2023-08-20T14:45:49;6.60;;;4.50;;
76978;SDS011;65911;47.502;19.148;2023-08-20T14:48:51;5.20;;;4.70;;
76978;SDS011;65911;47.502;19.148;2023-08-20T14:51:54;7.15;;;4.88;;
76978;SDS011;65911;47.502;19.148;2023-08-20T14:55:16;6.30;;;4.87;;
76978;SDS011;65911;47.502;19.148;2023-08-20T14:58:21;4.68;;;4.28;;
76978;SDS011;65911;47.502;19.148;2023-08-20T15:01:24;5.78;;;4.80;;
76978;SDS011;65911;47.502;19.148;2023-08-20T15:04:26;7.40;;;5.20;;
76978;SDS011;65911;47.502;19.148;2023-08-20T15:07:28;6.20;;;4.90;;
76978;SDS011;65911;47.502;19.148;2023-08-20T15:10:31;6.18;;;4.97;;
76978;SDS011;65911;47.502;19.148;2023-08-20T15:13:33;5.63;;;4.75;;
76978;SDS011;65911;47.502;19.148;2023-08-20T15:16:35;5.65;;;4.90;;
76978;SDS011;65911;47.502;19.148;2023-08-20T15:19:37;5.73;;;5.13;;
76978;SDS011;65911;47.502;19.148;2023-08-20T15:22:40;6.20;;;5.07;;
76978;SDS011;65911;47.502;19.148;2023-08-20T15:25:46;5.15;;;4.65;;
76978;SDS011;65911;47.502;19.148;2023-08-20T15:28:52;5.90;;;4.68;;
76978;SDS011;65911;47.502;19.148;2023-08-20T15:31:54;5.17;;;4.60;;
76978;SDS011;65911;47.502;19.148;2023-08-20T15:34:57;5.38;;;4.88;;
76978;SDS011;65911;47.502;19.148;2023-08-20T15:37:59;5.47;;;4.93;;
76978;SDS011;65911;47.502;19.148;2023-08-20T15:41:01;5.15;;;4.60;;
76978;SDS011;65911;47.502;19.148;2023-08-20T15:44:04;6.20;;;5.60;;
76978;SDS011;65911;47.502;19.148;2023-08-20T15:47:06;5.35;;;4.85;;
76978;SDS011;65911;47.502;19.148;2023-08-20T15:50:09;8.13;;;4.80;;
76978;SDS011;65911;47.502;19.148;2023-08-20T15:53:11;6.23;;;5.27;;
76978;SDS011;65911;47.502;19.148;2023-08-20T15:56:13;5.95;;;4.80;;
76978;SDS011;65911;47.502;19.148;2023-08-20T15:59:15;6.78;;;5.50;;
76978;SDS011;65911;47.502;19.148;2023-08-20T16:02:17;6.70;;;5.32;;
76978;SDS011;65911;47.502;19.148;2023-08-20T16:05:20;8.20;;;5.30;;
76978;SDS011;65911;47.502;19.148;2023-08-20T16:08:22;5.97;;;5.38;;
76978;SDS011;65911;47.502;19.148;2023-08-20T16:11:24;6.75;;;5.22;;
76978;SDS011;65911;47.502;19.148;2023-08-20T16:14:27;7.55;;;5.13;;
76978;SDS011;65911;47.502;19.148;2023-08-20T16:17:29;6.97;;;5.45;;
76978;SDS011;65911;47.502;19.148;2023-08-20T16:20:33;7.32;;;5.28;;
76978;SDS011;65911;47.502;19.148;2023-08-20T16:23:36;6.15;;;5.20;;
76978;SDS011;65911;47.502;19.148;2023-08-20T16:26:38;7.23;;;5.03;;
76978;SDS011;65911;47.502;19.148;2023-08-20T16:29:44;6.82;;;5.30;;
76978;SDS011;65911;47.502;19.148;2023-08-20T16:32:46;5.80;;;5.20;;
76978;SDS011;65911;47.502;19.148;2023-08-20T16:35:49;5.78;;;5.28;;
76978;SDS011;65911;47.502;19.148;2023-08-20T16:38:52;5.95;;;5.13;;
76978;SDS011;65911;47.502;19.148;2023-08-20T16:41:55;8.23;;;5.05;;
76978;SDS011;65911;47.502;19.148;2023-08-20T16:44:57;6.45;;;5.25;;
76978;SDS011;65911;47.502;19.148;2023-08-20T16:48:00;5.73;;;5.23;;
76978;SDS011;65911;47.502;19.148;2023-08-20T16:51:02;6.15;;;5.20;;
76978;SDS011;65911;47.502;19.148;2023-08-20T16:54:05;6.03;;;4.93;;
76978;SDS011;65911;47.502;19.148;2023-08-20T16:57:07;5.83;;;5.23;;
76978;SDS011;65911;47.502;19.148;2023-08-20T17:00:09;5.75;;;5.15;;
76978;SDS011;65911;47.502;19.148;2023-08-20T17:03:12;6.07;;;5.47;;
76978;SDS011;65911;47.502;19.148;2023-08-20T17:06:15;5.90;;;5.35;;
76978;SDS011;65911;47.502;19.148;2023-08-20T17:09:18;5.80;;;5.18;;
76978;SDS011;65911;47.502;19.148;2023-08-20T17:12:21;6.60;;;5.25;;
76978;SDS011;65911;47.502;19.148;2023-08-20T17:15:24;5.78;;;5.18;;
76978;SDS011;65911;47.502;19.148;2023-08-20T17:18:29;6.97;;;5.50;;
76978;SDS011;65911;47.502;19.148;2023-08-20T17:21:31;6.65;;;5.20;;
76978;SDS011;65911;47.502;19.148;2023-08-20T17:24:33;7.45;;;5.07;;
76978;SDS011;65911;47.502;19.148;2023-08-20T17:27:36;6.03;;;5.28;;
76978;SDS011;65911;47.502;19.148;2023-08-20T17:30:39;6.53;;;5.25;;
76978;SDS011;65911;47.502;19.148;2023-08-20T17:33:41;5.90;;;5.30;;
76978;SDS011;65911;47.502;19.148;2023-08-20T17:36:46;6.53;;;5.72;;
76978;SDS011;65911;47.502;19.148;2023-08-20T17:39:48;5.70;;;5.10;;
76978;SDS011;65911;47.502;19.148;2023-08-20T17:42:50;6.53;;;5.60;;
76978;SDS011;65911;47.502;19.148;2023-08-20T17:45:53;5.57;;;5.03;;
76978;SDS011;65911;47.502;19.148;2023-08-20T17:48:55;7.07;;;5.70;;
76978;SDS011;65911;47.502;19.148;2023-08-20T17:51:57;8.88;;;5.63;;
76978;SDS011;65911;47.502;19.148;2023-08-20T17:54:59;6.40;;;5.60;;
76978;SDS011;65911;47.502;19.148;2023-08-20T17:58:01;8.85;;;5.63;;
76978;SDS011;65911;47.502;19.148;2023-08-20T18:01:04;6.50;;;5.50;;
76978;SDS011;65911;47.502;19.148;2023-08-20T18:04:06;6.22;;;5.63;;
76978;SDS011;65911;47.502;19.148;2023-08-20T18:07:08;6.15;;;5.55;;
76978;SDS011;65911;47.502;19.148;2023-08-20T18:10:11;7.67;;;5.90;;
76978;SDS011;65911;47.502;19.148;2023-08-20T18:13:13;8.02;;;5.68;;
76978;SDS011;65911;47.502;19.148;2023-08-20T18:16:17;7.03;;;5.60;;